SCC: Mosport: GS practice one times

Pos Num Class Team Time Gap To 1st Speed --- --- ----- ------------------------------ ---------- ------- ------- ------- 1. 52 GS Rehagen Racing 1:30.381 97.945 2. 90...

Pos Num Class Team                                 Time     Gap  To 1st   Speed
--- --- ----- ------------------------------ ---------- ------- ------- -------
 1.  52 GS    Rehagen Racing                   1:30.381                  97.945
 2.  90 GS    Automatic Racing                 1:30.402   0.021   0.021  97.923
 3.  25 GS    Fiorano/C-MAX Racing             1:30.422   0.020   0.041  97.901
 4.  55 GS    Hyper Sport                      1:30.441   0.019   0.060  97.880
 5.  40 GS    TRG                              1:30.584   0.143   0.203  97.726
 6.  99 GS    Automatic Racing                 1:30.730   0.146   0.349  97.569
 7.  82 GS    BRG/Group 88 Motorsports         1:30.916   0.186   0.535  97.369
 8.  97 GS    Turner Motorsport                1:30.929   0.013   0.548  97.355
 9.   4 GS    Blackforest Motorsports          1:30.959   0.030   0.578  97.323
10.  41 GS    TRG                              1:30.965   0.006   0.584  97.317
11.  37 GS    JBS Racing                       1:31.116   0.151   0.735  97.155
12.  49 GS    Marcus Motorsports               1:31.124   0.008   0.743  97.147
13.  59 GS    Rehagen Racing                   1:31.130   0.006   0.749  97.140
14.  38 GS    BGB Motorsports                  1:31.248   0.118   0.867  97.015
15. 137 GS    JBS Motorsports                  1:31.471   0.223   1.090  96.778
16.   5 GS    Blackforest Motorsports          1:31.603   0.132   1.222  96.639
17.  09 GS    Automatic Racing                 1:31.632   0.029   1.251  96.608
18.  79 GS    Kinetic Motorsports              1:31.745   0.113   1.364  96.489
19.  91 GS    Automatic Racing                 1:31.761   0.016   1.380  96.472
20.  83 GS    BGB Motorsports                  1:31.833   0.072   1.452  96.397
21.  26 GS    Fiorano/C-MAX Racing             1:31.879   0.046   1.498  96.348
22.  54 GS    Hyper Sport                      1:31.937   0.058   1.556  96.288
23.  96 GS    Turner Motorsport                1:31.998   0.061   1.617  96.224
24.  88 GS    Ranger Sports Racing             1:32.240   0.242   1.859  95.971
25.  39 GS    TRG                              1:32.280   0.040   1.899  95.930
26.  87 GS    Ranger Sports Racing             1:32.295   0.015   1.914  95.914
27. 154 GS    Rehagen Racing                   1:33.596   1.301   3.215  94.581
28.  89 GS    Ranger Sports Racing             1:36.343   2.747   5.962  91.884
29.  42 GS    TRG                              1:46.623  10.280  16.242  83.025
30.  20 GS    Horsepower Ranch                  No Time

Be part of something big

Write a comment
Show comments
About this article
Series Grand-Am
Teams Kinetic Motorsports , Rehagen Racing , Turner Motorsport , Automatic Racing